American Lake, Washington
Current Conditions -  °F | °C
As of 11:58 PM on Sunday 21 Dec 2014 (Local Time) from KGRF Reporting Station
Broken Clouds Broken Clouds  
Wind Chill: 49°   Ceiling: 5000
Heat Index: 49°   Visibility: 10mi
Dew Point: 49°   Wind: 3mph
Humidity: 99%   Direction: 190°S
Pressure: 30.14"   Gusts: NA
Location:  47.1451°N, 122.578°W
Report Text: KGRF 220758Z 19003KT 10SM BKN050 BKN070 09/09 A3014 RMK AO2A DZE0658 SLP211 WND DATA ESTMD P0000 T00940092 401260084 $
Loading
Personal Weather Stations






























Interactive Weather Map New forecast layout! Learn more

10-Day Weather Forecast

Advertisements
Track Severe Weather on mobile